createdAt,value
2023-02-08T00:00:33.107Z,-6.96
2023-02-08T00:01:33.045Z,-6.96
2023-02-08T00:02:33.072Z,-6.99
2023-02-08T00:03:33.061Z,-6.93
2023-02-08T00:04:32.994Z,-6.87
2023-02-08T00:05:33.008Z,-6.79
2023-02-08T00:06:32.961Z,-6.76
2023-02-08T00:07:32.995Z,-6.76
2023-02-08T00:08:32.963Z,-6.76
2023-02-08T00:09:32.949Z,-6.76
2023-02-08T00:10:32.969Z,-6.83
2023-02-08T00:11:32.923Z,-6.87
2023-02-08T00:12:32.908Z,-6.92
2023-02-08T00:13:32.891Z,-6.93
2023-02-08T00:14:32.859Z,-6.94
2023-02-08T00:15:32.896Z,-6.96
2023-02-08T00:16:32.857Z,-6.96
2023-02-08T00:17:32.838Z,-7.00
2023-02-08T00:18:32.840Z,-7.04
2023-02-08T00:19:32.825Z,-7.05
2023-02-08T00:20:32.864Z,-7.03
2023-02-08T00:21:32.812Z,-6.99
2023-02-08T00:22:32.823Z,-7.03
2023-02-08T00:23:32.804Z,-7.10
2023-02-08T00:24:32.784Z,-7.17
2023-02-08T00:25:32.823Z,-7.18
2023-02-08T00:26:32.782Z,-7.15
2023-02-08T00:27:32.765Z,-7.22
2023-02-08T00:28:32.824Z,-7.28
2023-02-08T00:29:32.727Z,-7.33
2023-02-08T00:30:32.827Z,-7.44
2023-02-08T00:31:32.751Z,-7.47
2023-02-08T00:32:32.717Z,-7.50
2023-02-08T00:33:32.678Z,-7.54
2023-02-08T00:34:32.661Z,-7.64
2023-02-08T00:35:32.696Z,-7.64
2023-02-08T00:36:32.651Z,-7.60
2023-02-08T00:37:32.638Z,-7.63
2023-02-08T00:38:32.624Z,-7.65
2023-02-08T00:39:32.642Z,-7.67
2023-02-08T00:40:32.655Z,-7.64
2023-02-08T00:41:32.603Z,-7.70
2023-02-08T00:42:32.608Z,-7.78
2023-02-08T00:43:32.587Z,-7.70
2023-02-08T00:44:32.554Z,-7.71
2023-02-08T00:45:32.596Z,-7.64
2023-02-08T00:46:32.570Z,-7.54
2023-02-08T00:47:32.527Z,-7.53
2023-02-08T00:48:32.530Z,-7.56
2023-02-08T00:49:32.503Z,-7.56
2023-02-08T00:50:32.528Z,-7.53
2023-02-08T00:51:32.487Z,-7.49
2023-02-08T00:52:32.474Z,-7.53
2023-02-08T00:53:32.484Z,-7.50
2023-02-08T00:54:32.474Z,-7.50
2023-02-08T00:55:32.484Z,-7.49
2023-02-08T00:56:32.453Z,-7.47
2023-02-08T00:57:32.416Z,-7.46
2023-02-08T00:58:32.430Z,-7.47
2023-02-08T00:59:32.398Z,-7.50
2023-02-08T01:00:32.477Z,-7.50
2023-02-08T01:01:32.378Z,-7.43
2023-02-08T01:02:32.361Z,-7.44
2023-02-08T01:03:32.371Z,-7.53
2023-02-08T01:04:32.349Z,-7.64
2023-02-08T01:05:32.389Z,-7.71
2023-02-08T01:06:32.316Z,-7.79
2023-02-08T01:07:32.326Z,-7.83
2023-02-08T01:08:32.302Z,-7.89
2023-02-08T01:09:32.312Z,-7.93
2023-02-08T01:10:32.334Z,-8.03
2023-02-08T01:11:32.270Z,-8.07
2023-02-08T01:12:32.260Z,-8.08
2023-02-08T01:13:32.257Z,-8.08
2023-02-08T01:14:32.244Z,-7.97
2023-02-08T01:15:32.249Z,-7.92
2023-02-08T01:16:32.209Z,-7.97
2023-02-08T01:17:32.202Z,-7.93
2023-02-08T01:18:32.197Z,-7.92
2023-02-08T01:19:32.192Z,-7.85
2023-02-08T01:20:32.211Z,-7.85
2023-02-08T01:21:32.170Z,-7.89
2023-02-08T01:22:32.166Z,-7.96
2023-02-08T01:23:32.141Z,-7.96
2023-02-08T01:24:32.122Z,-8.05
2023-02-08T01:25:32.143Z,-8.10
2023-02-08T01:26:32.093Z,-8.04
2023-02-08T01:27:32.105Z,-7.99
2023-02-08T01:28:32.080Z,-8.01
2023-02-08T01:29:32.095Z,-8.05
2023-02-08T01:30:32.123Z,-8.01
2023-02-08T01:31:32.183Z,-7.97
2023-02-08T01:32:32.038Z,-7.97
2023-02-08T01:33:32.058Z,-8.08
2023-02-08T01:34:32.030Z,-8.19
2023-02-08T01:35:32.047Z,-8.21
2023-02-08T01:36:32.051Z,-8.21
2023-02-08T01:37:31.978Z,-8.18
2023-02-08T01:38:32.009Z,-8.15
2023-02-08T01:39:31.966Z,-8.13
2023-02-08T01:40:31.979Z,-8.23
2023-02-08T01:41:31.948Z,-8.31
2023-02-08T01:42:31.938Z,-8.25
2023-02-08T01:43:31.911Z,-8.19
2023-02-08T01:44:31.889Z,-8.18
2023-02-08T01:45:31.998Z,-8.21
2023-02-08T01:46:31.900Z,-8.19
2023-02-08T01:47:31.898Z,-8.16
2023-02-08T01:48:31.902Z,-8.13
2023-02-08T01:49:31.861Z,-8.07
2023-02-08T01:50:31.884Z,-8.07
2023-02-08T01:51:31.848Z,-8.16
2023-02-08T01:52:31.825Z,-8.18
2023-02-08T01:53:31.841Z,-8.23
2023-02-08T01:54:31.787Z,-8.19
2023-02-08T01:55:31.837Z,-8.18
2023-02-08T01:56:31.771Z,-8.23
2023-02-08T01:57:31.767Z,-8.31
2023-02-08T01:58:31.762Z,-8.39
2023-02-08T01:59:31.777Z,-8.43
2023-02-08T02:00:31.770Z,-8.42
2023-02-08T02:01:31.730Z,-8.39
2023-02-08T02:02:31.731Z,-8.31
2023-02-08T02:03:31.708Z,-8.29
2023-02-08T02:04:31.727Z,-8.26
2023-02-08T02:05:31.746Z,-8.34
2023-02-08T02:06:31.674Z,-8.32
2023-02-08T02:07:31.663Z,-8.32
2023-02-08T02:08:31.641Z,-8.37
2023-02-08T02:09:31.659Z,-8.39
2023-02-08T02:10:31.667Z,-8.42
2023-02-08T02:11:31.637Z,-8.39
2023-02-08T02:12:32.596Z,-8.40
2023-02-08T02:13:31.580Z,-8.43
2023-02-08T02:14:31.573Z,-8.44
2023-02-08T02:15:31.598Z,-8.49
2023-02-08T02:16:31.593Z,-8.43
2023-02-08T02:17:31.553Z,-8.32
2023-02-08T02:18:31.552Z,-8.28
2023-02-08T02:19:31.551Z,-8.26
2023-02-08T02:20:31.552Z,-8.32
2023-02-08T02:21:31.533Z,-8.36
2023-02-08T02:22:31.565Z,-8.36
2023-02-08T02:23:31.484Z,-8.43
2023-02-08T02:24:31.513Z,-8.46
2023-02-08T02:25:31.529Z,-8.50
2023-02-08T02:26:31.473Z,-8.50
2023-02-08T02:27:31.452Z,-8.47
2023-02-08T02:28:31.420Z,-8.50
2023-02-08T02:29:31.439Z,-8.50
2023-02-08T02:30:31.527Z,-8.54
2023-02-08T02:31:31.417Z,-8.46
2023-02-08T02:32:31.404Z,-8.44
2023-02-08T02:33:31.393Z,-8.42
2023-02-08T02:34:31.360Z,-8.40
2023-02-08T02:35:31.392Z,-8.40
2023-02-08T02:36:31.339Z,-8.49
2023-02-08T02:37:31.365Z,-8.60
2023-02-08T02:38:31.320Z,-8.67
2023-02-08T02:39:31.317Z,-8.68
2023-02-08T02:40:31.323Z,-8.73
2023-02-08T02:41:31.343Z,-8.76
2023-02-08T02:42:31.313Z,-8.75
2023-02-08T02:43:31.256Z,-8.75
2023-02-08T02:44:31.245Z,-8.79
2023-02-08T02:45:31.323Z,-8.82
2023-02-08T02:46:31.242Z,-8.79
2023-02-08T02:47:31.238Z,-8.68
2023-02-08T02:48:31.232Z,-8.60
2023-02-08T02:49:31.209Z,-8.47
2023-02-08T02:50:31.237Z,-8.34
2023-02-08T02:51:31.214Z,-8.29
2023-02-08T02:52:31.167Z,-8.44
2023-02-08T02:53:31.183Z,-8.46
2023-02-08T02:54:31.159Z,-8.47
2023-02-08T02:55:31.176Z,-8.44
2023-02-08T02:56:31.146Z,-8.39
2023-02-08T02:57:31.147Z,-8.36
2023-02-08T02:58:31.120Z,-8.29
2023-02-08T02:59:31.100Z,-8.36
2023-02-08T03:00:31.149Z,-8.39
2023-02-08T03:01:31.210Z,-8.47
2023-02-08T03:02:31.082Z,-8.55
2023-02-08T03:03:31.066Z,-8.60
2023-02-08T03:04:31.080Z,-8.55
2023-02-08T03:05:31.093Z,-8.52
2023-02-08T03:06:31.037Z,-8.49
2023-02-08T03:07:31.026Z,-8.42
2023-02-08T03:08:31.023Z,-8.37
2023-02-08T03:09:30.999Z,-8.29
2023-02-08T03:10:31.047Z,-8.25
2023-02-08T03:11:30.993Z,-8.21
2023-02-08T03:12:30.976Z,-8.21
2023-02-08T03:13:30.935Z,-8.26
2023-02-08T03:14:30.938Z,-8.36
2023-02-08T03:15:30.952Z,-8.39
2023-02-08T03:16:30.938Z,-8.47
2023-02-08T03:17:30.918Z,-8.58
2023-02-08T03:18:30.906Z,-8.60
2023-02-08T03:19:30.903Z,-8.54
2023-02-08T03:20:30.923Z,-8.52
2023-02-08T03:21:30.891Z,-8.43
2023-02-08T03:22:30.844Z,-8.37
2023-02-08T03:23:30.848Z,-8.34
2023-02-08T03:24:30.843Z,-8.34
2023-02-08T03:25:30.858Z,-8.36
2023-02-08T03:26:30.820Z,-8.34
2023-02-08T03:27:30.808Z,-8.34
2023-02-08T03:28:30.812Z,-8.32
2023-02-08T03:29:30.785Z,-8.32
2023-02-08T03:30:30.800Z,-8.40
2023-02-08T03:31:31.046Z,-8.46
2023-02-08T03:32:30.748Z,-8.46
2023-02-08T03:33:30.732Z,-8.44
2023-02-08T03:34:30.728Z,-8.46
2023-02-08T03:35:30.742Z,-8.40
2023-02-08T03:36:30.693Z,-8.37
2023-02-08T03:37:30.699Z,-8.31
2023-02-08T03:38:30.678Z,-8.31
2023-02-08T03:39:30.669Z,-8.32
2023-02-08T03:40:30.709Z,-8.32
2023-02-08T03:41:30.682Z,-8.28
2023-02-08T03:42:30.645Z,-8.28
2023-02-08T03:43:30.633Z,-8.31
2023-02-08T03:44:30.604Z,-8.47
2023-02-08T03:45:30.632Z,-8.57
2023-02-08T03:46:30.590Z,-8.62
2023-02-08T03:47:30.582Z,-8.70
2023-02-08T03:48:30.587Z,-8.73
2023-02-08T03:49:30.558Z,-8.73
2023-02-08T03:50:30.588Z,-8.73
2023-02-08T03:51:30.560Z,-8.75
2023-02-08T03:52:30.528Z,-8.83
2023-02-08T03:53:30.526Z,-8.90
2023-02-08T03:54:30.525Z,-9.00
2023-02-08T03:55:30.567Z,-9.02
2023-02-08T03:56:30.466Z,-9.06
2023-02-08T03:57:30.487Z,-9.07
2023-02-08T03:58:30.444Z,-9.06
2023-02-08T03:59:30.457Z,-9.06
2023-02-08T04:00:30.470Z,-9.06
2023-02-08T04:01:30.472Z,-9.11
2023-02-08T04:02:30.466Z,-9.20
2023-02-08T04:03:30.428Z,-9.20
2023-02-08T04:04:30.403Z,-9.14
2023-02-08T04:05:30.419Z,-9.12
2023-02-08T04:06:30.379Z,-9.10
2023-02-08T04:07:30.374Z,-9.12
2023-02-08T04:08:30.366Z,-9.10
2023-02-08T04:09:30.345Z,-9.03
2023-02-08T04:10:30.381Z,-8.96
2023-02-08T04:11:30.329Z,-9.00
2023-02-08T04:12:30.312Z,-9.04
2023-02-08T04:13:30.290Z,-9.07
2023-02-08T04:14:30.285Z,-9.04
2023-02-08T04:15:30.372Z,-9.04
2023-02-08T04:16:30.278Z,-9.14
2023-02-08T04:17:30.260Z,-9.20
2023-02-08T04:18:30.242Z,-9.15
2023-02-08T04:19:30.258Z,-9.14
2023-02-08T04:20:30.254Z,-9.12
2023-02-08T04:21:30.222Z,-9.20
2023-02-08T04:22:30.229Z,-9.31
2023-02-08T04:23:30.202Z,-9.36
2023-02-08T04:24:30.198Z,-9.38
2023-02-08T04:25:30.180Z,-9.38
2023-02-08T04:26:30.209Z,-9.41
2023-02-08T04:27:30.150Z,-9.43
2023-02-08T04:28:30.127Z,-9.46
2023-02-08T04:29:30.143Z,-9.46
2023-02-08T04:30:30.193Z,-9.44
2023-02-08T04:31:30.354Z,-9.43
2023-02-08T04:32:30.088Z,-9.41
2023-02-08T04:33:30.108Z,-9.36
2023-02-08T04:34:30.087Z,-9.36
2023-02-08T04:35:30.067Z,-9.33
2023-02-08T04:36:30.093Z,-9.28
2023-02-08T04:37:30.047Z,-9.25
2023-02-08T04:38:30.033Z,-9.32
2023-02-08T04:39:30.057Z,-9.36
2023-02-08T04:40:30.052Z,-9.38
2023-02-08T04:41:30.047Z,-9.39
2023-02-08T04:42:30.001Z,-9.36
2023-02-08T04:43:29.999Z,-9.39
2023-02-08T04:44:29.955Z,-9.39
2023-02-08T04:45:29.961Z,-9.35
2023-02-08T04:46:30.079Z,-9.39
2023-02-08T04:47:29.945Z,-9.41
2023-02-08T04:48:29.937Z,-9.32
2023-02-08T04:49:29.916Z,-9.31
2023-02-08T04:50:29.922Z,-9.25
2023-02-08T04:51:29.951Z,-9.24
2023-02-08T04:52:29.894Z,-9.00
2023-02-08T04:53:29.897Z,-8.75
2023-02-08T04:54:29.874Z,-8.52
2023-02-08T04:55:29.867Z,-8.28
2023-02-08T04:56:29.877Z,-8.11
2023-02-08T04:57:29.847Z,-7.91
2023-02-08T04:58:29.827Z,-7.64
2023-02-08T04:59:29.823Z,-7.46
2023-02-08T05:00:29.803Z,-7.36
2023-02-08T05:01:29.873Z,-7.28
2023-02-08T05:02:29.774Z,-7.22
2023-02-08T05:03:29.793Z,-7.18
2023-02-08T05:04:29.769Z,-7.13
2023-02-08T05:05:29.748Z,-7.13
2023-02-08T05:06:29.764Z,-7.11
2023-02-08T05:07:29.724Z,-7.08
2023-02-08T05:08:29.708Z,-7.07
2023-02-08T05:09:29.729Z,-7.04
2023-02-08T05:10:29.704Z,-6.96
2023-02-08T05:11:29.724Z,-6.92
2023-02-08T05:12:29.666Z,-6.89
2023-02-08T05:13:29.658Z,-6.87
2023-02-08T05:14:29.624Z,-6.86
2023-02-08T05:15:29.638Z,-6.83
2023-02-08T05:16:29.686Z,-6.81
2023-02-08T05:17:29.619Z,-6.83
2023-02-08T05:18:29.600Z,-6.79
2023-02-08T05:19:29.600Z,-6.81
2023-02-08T05:20:29.581Z,-6.79
2023-02-08T05:21:29.564Z,-6.76
2023-02-08T05:22:29.621Z,-6.78
2023-02-08T05:23:29.555Z,-6.76
2023-02-08T05:24:29.546Z,-6.75
2023-02-08T05:25:29.522Z,-6.71
2023-02-08T05:26:29.518Z,-6.66
2023-02-08T05:27:29.597Z,-6.65
2023-02-08T05:28:29.480Z,-6.65
2023-02-08T05:29:29.481Z,-6.65
2023-02-08T05:30:29.474Z,-6.63
2023-02-08T05:31:29.533Z,-6.58
2023-02-08T05:32:29.490Z,-6.50
2023-02-08T05:33:29.444Z,-6.50
2023-02-08T05:34:29.455Z,-6.49
2023-02-08T05:35:29.429Z,-6.49
2023-02-08T05:36:29.445Z,-6.44
2023-02-08T05:37:29.458Z,-6.46
2023-02-08T05:38:29.391Z,-6.42
2023-02-08T05:39:29.374Z,-6.44
2023-02-08T05:40:29.385Z,-6.47
2023-02-08T05:41:29.364Z,-6.49
2023-02-08T05:42:29.403Z,-6.53
2023-02-08T05:43:29.317Z,-6.58
2023-02-08T05:44:29.321Z,-6.63
2023-02-08T05:45:29.283Z,-6.65
2023-02-08T05:46:29.322Z,-6.66
2023-02-08T05:47:29.304Z,-6.69
2023-02-08T05:48:29.276Z,-6.69
2023-02-08T05:49:29.283Z,-6.69
2023-02-08T05:50:29.287Z,-6.69
2023-02-08T05:51:29.226Z,-6.72
2023-02-08T05:52:29.310Z,-6.75
2023-02-08T05:53:29.237Z,-6.78
2023-02-08T05:54:29.210Z,-6.83
2023-02-08T05:55:29.208Z,-6.89
2023-02-08T05:56:29.193Z,-6.90
2023-02-08T05:57:31.405Z,-6.94
2023-02-08T05:58:29.194Z,-6.99
2023-02-08T05:59:29.140Z,-7.03
2023-02-08T06:00:29.153Z,-6.99
2023-02-08T06:01:29.159Z,-7.04
2023-02-08T06:02:29.149Z,-7.07
2023-02-08T06:03:29.116Z,-7.08
2023-02-08T06:04:29.101Z,-7.07
2023-02-08T06:05:29.106Z,-7.13
2023-02-08T06:06:29.096Z,-7.15
2023-02-08T06:07:29.129Z,-7.17
2023-02-08T06:08:29.076Z,-7.18
2023-02-08T06:09:29.060Z,-7.22
2023-02-08T06:10:29.071Z,-7.21
2023-02-08T06:11:29.045Z,-7.23
2023-02-08T06:12:29.086Z,-7.23
2023-02-08T06:13:29.073Z,-7.18
2023-02-08T06:14:29.022Z,-7.07
2023-02-08T06:15:28.967Z,-7.03
2023-02-08T06:16:29.001Z,-6.92
2023-02-08T06:17:29.021Z,-6.84
2023-02-08T06:18:28.984Z,-6.76
2023-02-08T06:19:28.955Z,-6.74
2023-02-08T06:20:28.932Z,-6.61
2023-02-08T06:21:28.923Z,-6.53
2023-02-08T06:22:28.959Z,-6.46
2023-02-08T06:23:28.907Z,-6.49
2023-02-08T06:24:28.880Z,-6.52
2023-02-08T06:25:28.876Z,-6.49
2023-02-08T06:26:28.889Z,-6.47
2023-02-08T06:27:28.897Z,-6.47
2023-02-08T06:28:28.897Z,-6.29
2023-02-08T06:29:28.843Z,-6.21
2023-02-08T06:30:28.845Z,-6.20
2023-02-08T06:31:28.829Z,-6.07
2023-02-08T06:32:28.909Z,-6.00
2023-02-08T06:33:28.794Z,-6.00
2023-02-08T06:34:28.798Z,-5.96
2023-02-08T06:35:28.774Z,-5.96
2023-02-08T06:36:28.764Z,-5.93
2023-02-08T06:37:28.775Z,-5.78
2023-02-08T06:38:28.739Z,-5.72
2023-02-08T06:39:28.740Z,-5.63
2023-02-08T06:40:28.731Z,-5.58
2023-02-08T06:41:28.740Z,-5.56
2023-02-08T06:42:28.734Z,-5.54
2023-02-08T06:43:28.670Z,-5.54
2023-02-08T06:44:28.657Z,-5.57
2023-02-08T06:45:28.690Z,-5.54
2023-02-08T06:46:28.661Z,-5.45
2023-02-08T06:47:28.746Z,-5.40
2023-02-08T06:48:28.626Z,-5.35
2023-02-08T06:49:28.618Z,-5.38
2023-02-08T06:50:28.624Z,-5.35
2023-02-08T06:51:28.596Z,-5.31
2023-02-08T06:52:28.683Z,-5.31
2023-02-08T06:53:28.569Z,-5.35
2023-02-08T06:54:28.572Z,-5.31
2023-02-08T06:55:28.546Z,-5.33
2023-02-08T06:56:28.600Z,-5.29
2023-02-08T06:57:28.594Z,-5.31
2023-02-08T06:58:28.525Z,-5.33
2023-02-08T06:59:28.524Z,-5.25
2023-02-08T07:00:28.512Z,-5.21
2023-02-08T07:01:28.523Z,-5.13
2023-02-08T07:02:28.561Z,-4.99
2023-02-08T07:03:28.480Z,-4.96
2023-02-08T07:04:28.459Z,-4.95
2023-02-08T07:05:28.473Z,-4.88
2023-02-08T07:06:28.444Z,-4.87
2023-02-08T07:07:28.455Z,-4.82
2023-02-08T07:08:28.432Z,-4.79
2023-02-08T07:09:28.418Z,-4.75
2023-02-08T07:10:28.401Z,-4.73
2023-02-08T07:11:28.381Z,-4.71
2023-02-08T07:12:28.426Z,-4.69
2023-02-08T07:13:28.385Z,-4.66
2023-02-08T07:14:28.347Z,-4.59
2023-02-08T07:15:28.341Z,-4.48
2023-02-08T07:16:28.369Z,-4.39
2023-02-08T07:17:28.356Z,-4.30
2023-02-08T07:18:28.312Z,-4.30
2023-02-08T07:19:28.333Z,-4.03
2023-02-08T07:20:28.295Z,-3.89
2023-02-08T07:21:28.308Z,-3.78
2023-02-08T07:22:28.262Z,-3.74
2023-02-08T07:23:28.310Z,-3.70
2023-02-08T07:24:28.239Z,-3.56
2023-02-08T07:25:28.232Z,-3.56
2023-02-08T07:26:28.273Z,-3.52
2023-02-08T07:27:28.223Z,-3.44
2023-02-08T07:28:28.251Z,-3.35
2023-02-08T07:29:28.197Z,-3.49
2023-02-08T07:30:28.261Z,-3.44
2023-02-08T07:31:28.238Z,-3.37
2023-02-08T07:32:28.194Z,-3.37
2023-02-08T07:33:28.187Z,-3.23
2023-02-08T07:34:28.155Z,-3.16
2023-02-08T07:35:28.131Z,-3.13
2023-02-08T07:36:28.132Z,-2.89
2023-02-08T07:37:28.121Z,-2.70
2023-02-08T07:38:28.158Z,-2.86
2023-02-08T07:39:28.100Z,-2.81
2023-02-08T07:40:28.126Z,-2.76
2023-02-08T07:41:28.074Z,-2.69
2023-02-08T07:42:28.042Z,-2.58
2023-02-08T07:43:28.064Z,-2.88
2023-02-08T07:44:28.039Z,-2.89
2023-02-08T07:45:28.026Z,-2.70
2023-02-08T07:46:28.068Z,-2.42
2023-02-08T07:47:28.018Z,-2.34
2023-02-08T07:48:28.043Z,-2.08
2023-02-08T07:49:27.989Z,-1.82
2023-02-08T07:50:27.994Z,-2.10
2023-02-08T07:51:27.982Z,-2.05
2023-02-08T07:52:27.950Z,-1.90
2023-02-08T07:53:27.954Z,-1.92
2023-02-08T07:54:27.929Z,-1.79
2023-02-08T07:55:27.933Z,-1.89
2023-02-08T07:56:27.907Z,-2.18
2023-02-08T07:57:27.874Z,-2.10
2023-02-08T07:58:27.938Z,-1.82
2023-02-08T07:59:27.859Z,-1.74
2023-02-08T08:00:27.872Z,-1.50
2023-02-08T08:01:27.852Z,-1.25
2023-02-08T08:02:27.848Z,-1.44
2023-02-08T08:03:27.842Z,-1.74
2023-02-08T08:04:27.842Z,-1.48
2023-02-08T08:05:27.809Z,-1.30
2023-02-08T08:06:27.826Z,-1.48
2023-02-08T08:07:27.782Z,-1.35
2023-02-08T08:08:27.767Z,-1.35
2023-02-08T08:09:27.782Z,-1.14
2023-02-08T08:10:27.743Z,-0.86
2023-02-08T08:11:27.734Z,-1.19
2023-02-08T08:12:27.718Z,-1.07
2023-02-08T08:13:27.688Z,-1.11
2023-02-08T08:14:27.750Z,-1.05
2023-02-08T08:15:27.702Z,-0.74
2023-02-08T08:16:27.741Z,-0.36
2023-02-08T08:17:29.856Z,-0.31
2023-02-08T08:18:27.767Z,-0.14
2023-02-08T08:19:27.706Z,-0.34
2023-02-08T08:20:27.652Z,-0.44
2023-02-08T08:21:27.615Z,-0.67
2023-02-08T08:22:27.610Z,-0.32
2023-02-08T08:23:27.593Z,-0.39
2023-02-08T08:24:27.626Z,-0.20
2023-02-08T08:25:27.595Z,0.12
2023-02-08T08:26:27.618Z,-0.41
2023-02-08T08:27:27.567Z,-0.21
2023-02-08T08:28:27.776Z,0.18
2023-02-08T08:29:27.574Z,0.32
2023-02-08T08:30:27.571Z,-0.21
2023-02-08T08:31:27.592Z,-0.25
2023-02-08T08:32:27.544Z,-0.14
2023-02-08T08:33:27.535Z,0.22
2023-02-08T08:34:27.550Z,0.65
2023-02-08T08:35:27.478Z,0.32
2023-02-08T08:36:27.482Z,0.41
2023-02-08T08:37:27.446Z,0.18
2023-02-08T08:38:27.430Z,0.18
2023-02-08T08:39:27.483Z,-0.31
2023-02-08T08:40:27.399Z,-0.56
2023-02-08T08:41:27.443Z,-0.23
2023-02-08T08:42:27.375Z,0.28
2023-02-08T08:43:27.390Z,0.44
2023-02-08T08:44:27.388Z,0.16
2023-02-08T08:45:27.363Z,0.25
2023-02-08T08:46:27.358Z,0.16
2023-02-08T08:47:27.324Z,0.04
2023-02-08T08:48:27.347Z,0.39
2023-02-08T08:49:27.457Z,0.59
2023-02-08T08:50:27.319Z,0.29
2023-02-08T08:51:27.289Z,0.18
2023-02-08T08:52:27.271Z,0.07
2023-02-08T08:53:27.291Z,0.59
2023-02-08T08:54:27.305Z,0.83
2023-02-08T08:55:27.234Z,0.52
2023-02-08T08:56:27.246Z,0.23
2023-02-08T08:57:27.233Z,0.31
2023-02-08T08:58:27.209Z,0.36
2023-02-08T08:59:27.244Z,0.19
2023-02-08T09:00:27.233Z,0.31
2023-02-08T09:01:27.186Z,0.04
2023-02-08T09:02:27.162Z,0.01
2023-02-08T09:03:27.253Z,-0.10
2023-02-08T09:04:27.153Z,0.07
2023-02-08T09:05:27.174Z,0.11
2023-02-08T09:06:27.175Z,0.22
2023-02-08T09:07:27.112Z,-0.08
2023-02-08T09:08:27.124Z,0.25
2023-02-08T09:09:27.073Z,0.28
2023-02-08T09:10:27.111Z,0.55
2023-02-08T09:11:27.080Z,0.60
2023-02-08T09:12:27.056Z,0.43
2023-02-08T09:13:27.036Z,0.16
2023-02-08T09:14:27.057Z,0.26
2023-02-08T09:15:27.101Z,0.07
2023-02-08T09:16:27.046Z,0.04
2023-02-08T09:17:27.004Z,-0.03
2023-02-08T09:18:26.991Z,-0.39
2023-02-08T09:19:26.968Z,-0.35
2023-02-08T09:20:26.972Z,-0.13
2023-02-08T09:21:26.972Z,0.04
2023-02-08T09:22:26.954Z,-0.29
2023-02-08T09:23:26.928Z,-0.49
2023-02-08T09:24:26.940Z,-0.38
2023-02-08T09:25:26.951Z,-0.17
2023-02-08T09:26:26.901Z,0.40
2023-02-08T09:27:26.876Z,0.40
2023-02-08T09:28:26.880Z,0.36
2023-02-08T09:29:26.863Z,0.26
2023-02-08T09:30:26.893Z,-0.14
2023-02-08T09:31:26.968Z,-0.34
2023-02-08T09:32:26.821Z,-0.18
2023-02-08T09:33:26.842Z,-0.28
2023-02-08T09:34:26.802Z,-0.15
2023-02-08T09:35:26.823Z,-0.07
2023-02-08T09:36:26.782Z,-0.21
2023-02-08T09:37:26.777Z,-0.18
2023-02-08T09:38:26.772Z,-0.08
2023-02-08T09:39:26.752Z,0.07
2023-02-08T09:40:26.755Z,0.18
2023-02-08T09:41:26.733Z,0.40
2023-02-08T09:42:26.777Z,0.59
2023-02-08T09:43:26.705Z,0.47
2023-02-08T09:44:26.681Z,0.23
2023-02-08T09:45:26.738Z,0.08
2023-02-08T09:46:26.691Z,-0.15
2023-02-08T09:47:26.679Z,-0.11
2023-02-08T09:48:26.656Z,0.05
2023-02-08T09:49:26.650Z,-0.08
2023-02-08T09:50:26.687Z,-0.28
2023-02-08T09:51:26.614Z,-0.28
2023-02-08T09:52:26.623Z,-0.15
2023-02-08T09:53:26.582Z,0.08
2023-02-08T09:54:26.584Z,0.39
2023-02-08T09:55:26.616Z,0.41
2023-02-08T09:56:26.573Z,0.34
2023-02-08T09:57:26.610Z,0.34
2023-02-08T09:58:26.518Z,0.39
2023-02-08T09:59:26.540Z,0.43
2023-02-08T10:00:26.591Z,0.60
2023-02-08T10:01:26.547Z,0.94
2023-02-08T10:02:26.496Z,0.58
2023-02-08T10:03:26.542Z,0.59
2023-02-08T10:04:26.479Z,0.59
2023-02-08T10:05:26.511Z,0.58
2023-02-08T10:06:26.462Z,0.84
2023-02-08T10:07:26.431Z,1.19
2023-02-08T10:08:34.684Z,1.53
2023-02-08T10:09:27.441Z,1.42
2023-02-08T10:10:26.422Z,0.87
2023-02-08T10:11:26.404Z,0.41
2023-02-08T10:12:26.367Z,0.34
2023-02-08T10:13:40.618Z,0.44
2023-02-08T10:14:27.366Z,0.92
2023-02-08T10:15:26.397Z,1.23
2023-02-08T10:16:26.347Z,1.19
2023-02-08T10:17:26.341Z,0.96
2023-02-08T10:18:26.381Z,1.08
2023-02-08T10:19:26.313Z,1.06
2023-02-08T10:20:26.312Z,0.84
2023-02-08T10:21:26.268Z,0.80
2023-02-08T10:22:26.251Z,0.83
2023-02-08T10:23:26.276Z,0.84
2023-02-08T10:24:26.239Z,0.87
2023-02-08T10:25:26.287Z,0.69
2023-02-08T10:26:26.245Z,0.70
2023-02-08T10:27:26.242Z,0.84
2023-02-08T10:28:26.285Z,1.01
2023-02-08T10:29:26.197Z,1.12
2023-02-08T10:30:26.225Z,1.28
2023-02-08T10:31:26.228Z,1.10
2023-02-08T10:32:26.149Z,1.17
2023-02-08T10:33:26.127Z,1.20
2023-02-08T10:34:26.122Z,1.44
2023-02-08T10:35:26.191Z,1.38
2023-02-08T10:36:26.096Z,1.30
2023-02-08T10:37:26.093Z,1.14
2023-02-08T10:38:29.659Z,1.45
2023-02-08T10:39:27.058Z,1.60
2023-02-08T10:40:26.190Z,1.52
2023-02-08T10:41:26.079Z,1.44
2023-02-08T10:42:26.093Z,1.44
2023-02-08T10:43:26.049Z,1.19
2023-02-08T10:44:26.040Z,1.23
2023-02-08T10:45:26.070Z,0.99
2023-02-08T10:46:26.000Z,1.14
2023-02-08T10:47:25.990Z,1.17
2023-02-08T10:48:25.978Z,1.19
2023-02-08T10:49:25.954Z,1.01
2023-02-08T10:50:26.704Z,1.19
2023-02-08T10:51:25.934Z,1.16
2023-02-08T10:52:25.923Z,1.31
2023-02-08T10:53:25.924Z,1.50
2023-02-08T10:54:25.923Z,1.45
2023-02-08T10:55:25.920Z,1.58
2023-02-08T10:56:25.874Z,1.41
2023-02-08T10:57:25.898Z,1.38
2023-02-08T10:58:25.853Z,1.44
2023-02-08T10:59:25.848Z,1.41
2023-02-08T11:00:25.875Z,1.53
2023-02-08T11:01:25.866Z,1.80
2023-02-08T11:02:25.801Z,2.00
2023-02-08T11:03:25.789Z,1.94
2023-02-08T11:04:25.835Z,2.17
2023-02-08T11:05:25.821Z,1.91
2023-02-08T11:06:25.757Z,2.28
2023-02-08T11:07:25.749Z,2.18
2023-02-08T11:08:25.735Z,2.54
2023-02-08T11:09:25.738Z,2.98
2023-02-08T11:10:25.766Z,3.04
2023-02-08T11:11:25.719Z,2.86
2023-02-08T11:12:25.712Z,2.87
2023-02-08T11:13:25.701Z,2.95
2023-02-08T11:14:30.420Z,3.31
2023-02-08T11:15:26.705Z,3.63
2023-02-08T11:16:25.682Z,3.83
2023-02-08T11:17:25.654Z,4.38
2023-02-08T11:18:25.638Z,4.56
2023-02-08T11:19:25.626Z,4.41
2023-02-08T11:20:25.633Z,4.12
2023-02-08T11:21:25.597Z,4.13
2023-02-08T11:22:25.585Z,4.34
2023-02-08T11:23:25.577Z,4.19
2023-02-08T11:24:25.585Z,4.66
2023-02-08T11:25:25.593Z,4.49
2023-02-08T11:26:25.548Z,4.68
2023-02-08T11:27:25.554Z,4.68
2023-02-08T11:28:25.586Z,4.48
2023-02-08T11:29:25.496Z,4.12
2023-02-08T11:30:25.583Z,4.70
2023-02-08T11:31:25.520Z,5.05
2023-02-08T11:32:25.469Z,5.14
2023-02-08T11:33:25.474Z,5.20
2023-02-08T11:34:25.470Z,4.58
2023-02-08T11:35:25.481Z,5.12
2023-02-08T11:36:25.420Z,5.43
2023-02-08T11:37:25.419Z,5.17
2023-02-08T11:38:25.408Z,5.20
2023-02-08T11:39:25.407Z,5.29
2023-02-08T11:40:25.424Z,5.75
2023-02-08T11:41:25.380Z,5.38
2023-02-08T11:42:25.363Z,5.12
2023-02-08T11:43:25.361Z,4.66
2023-02-08T11:44:25.357Z,4.66
2023-02-08T11:45:25.376Z,4.58
2023-02-08T11:46:25.337Z,5.30
2023-02-08T11:47:25.319Z,5.91
2023-02-08T11:48:25.289Z,5.79
2023-02-08T11:49:25.282Z,4.71
2023-02-08T11:50:25.306Z,4.73
2023-02-08T11:51:25.254Z,5.65
2023-02-08T11:52:25.268Z,5.65
2023-02-08T11:53:25.252Z,5.89
2023-02-08T11:54:25.221Z,5.76
2023-02-08T11:55:25.268Z,6.05
2023-02-08T11:56:25.228Z,6.54
2023-02-08T11:57:25.206Z,5.32
2023-02-08T11:58:25.175Z,5.07
2023-02-08T11:59:25.177Z,4.73
2023-02-08T12:00:25.204Z,4.70
2023-02-08T12:01:25.151Z,5.21
2023-02-08T12:02:25.176Z,5.51
2023-02-08T12:03:25.161Z,5.84
2023-02-08T12:04:25.133Z,6.08
2023-02-08T12:05:25.147Z,6.56
2023-02-08T12:06:25.100Z,5.98
2023-02-08T12:07:25.080Z,5.71
2023-02-08T12:08:25.049Z,5.36
2023-02-08T12:09:25.063Z,5.17
2023-02-08T12:10:25.105Z,5.35
2023-02-08T12:11:25.043Z,5.71
2023-02-08T12:12:25.051Z,5.08
2023-02-08T12:13:25.033Z,5.05
2023-02-08T12:14:24.991Z,5.20
2023-02-08T12:15:25.042Z,5.72
2023-02-08T12:16:25.050Z,5.65
2023-02-08T12:17:24.981Z,5.38
2023-02-08T12:18:24.961Z,4.84
2023-02-08T12:19:24.968Z,5.21
2023-02-08T12:20:24.988Z,5.25
2023-02-08T12:21:24.930Z,5.82
2023-02-08T12:22:24.906Z,6.05
2023-02-08T12:23:24.918Z,6.62
2023-02-08T12:24:24.896Z,6.30
2023-02-08T12:25:24.945Z,5.99
2023-02-08T12:26:24.870Z,5.65
2023-02-08T12:27:24.878Z,5.48
2023-02-08T12:28:24.884Z,5.80
2023-02-08T12:29:24.856Z,4.94
2023-02-08T12:30:24.857Z,5.30
2023-02-08T12:31:24.882Z,5.39
2023-02-08T12:32:24.791Z,5.80
2023-02-08T12:33:24.808Z,5.73
2023-02-08T12:34:24.771Z,6.26
2023-02-08T12:35:39.925Z,6.20
2023-02-08T12:36:25.778Z,5.91
2023-02-08T12:37:24.773Z,5.94
2023-02-08T12:38:24.747Z,5.80
2023-02-08T12:39:26.032Z,5.43
2023-02-08T12:40:24.735Z,5.20
2023-02-08T12:41:24.697Z,5.10
2023-02-08T12:42:24.696Z,5.71
2023-02-08T12:43:24.679Z,5.83
2023-02-08T12:44:24.662Z,5.50
2023-02-08T12:45:24.723Z,4.78
2023-02-08T12:46:24.703Z,4.31
2023-02-08T12:47:24.639Z,4.74
2023-02-08T12:48:24.620Z,4.94
2023-02-08T12:49:24.661Z,5.15
2023-02-08T12:50:24.629Z,5.47
2023-02-08T12:51:24.606Z,5.82
2023-02-08T12:52:24.574Z,6.02
2023-02-08T12:53:24.566Z,6.27
2023-02-08T12:54:24.534Z,6.81
2023-02-08T12:55:24.583Z,6.92
2023-02-08T12:56:24.581Z,6.39
2023-02-08T12:57:24.564Z,5.65
2023-02-08T12:58:24.503Z,5.69
2023-02-08T12:59:24.481Z,5.72
2023-02-08T13:00:24.496Z,5.79